Brave — NA29 — position and weather

sailwx.info

Track history (hours):
 
Tides and Currents Weather Stations Pressure Air Temp Water Temp Dewpoint Dewpoint Depression Visibility Wind Speed Wind Dir Waves Ship Positions

Brave

Last reported at 2018-Jun-20 12:38 UTC. Time now 2018-Jun-24 01:44 UTC.
Position N 39°25' W 076°03'.

Length 14 m.

Type: Sailing vessel. MMSI: 369970069.

Date/timePositionNaut miles runAvg speedWind from/ knotsBaromVisibWave heightAir tempDewpointWater temp
2018-Jun-20 12:38N 39°25' W 076°03'1 7.3
2018-Jun-20 12:30N 39°25' W 076°02'4 7.6
2018-Jun-20 12:00N 39°28' W 075°58'4 7.8
2018-Jun-20 11:30N 39°30' W 075°54'4 8.0
2018-Jun-20 11:00N 39°32' W 075°50'4 8.6
2018-Jun-20 10:30N 39°32' W 075°44'4 8.0
2018-Jun-20 10:00N 39°33' W 075°39'3 7.0
2018-Jun-20 09:30N 39°34' W 075°34'1 2.6
2018-Jun-20 09:00N 39°33' W 075°33'3 6.6
2018-Jun-20 08:30N 39°30' W 075°33'4 7.2
2018-Jun-20 08:00N 39°27' W 075°33'4 8.5
2018-Jun-20 07:30N 39°23' W 075°29'4 8.2
2018-Jun-20 07:00N 39°20' W 075°25'4 7.7
2018-Jun-20 06:30N 39°18' W 075°22'4 7.2
2018-Jun-20 06:00N 39°15' W 075°19'59 3.7
2018-Jun-19 13:58N 39°36' W 074°08'3 6.3
2018-Jun-19 13:28N 39°38' W 074°06'3 6.2
2018-Jun-19 13:00N 39°41' W 074°04'57 4.6
2018-Jun-19 00:36N 40°38' W 074°03'1 7.2
2018-Jun-19 00:27N 40°39' W 074°03'3 7.4
2018-Jun-19 00:00N 40°42' W 074°01'  
2018-Jun-14 21:24N 40°45' W 073°57'3 6.3
2018-Jun-14 20:56N 40°43' W 073°58'2 5.5
2018-Jun-14 20:30N 40°42' W 074°01'1 0.4
2018-Jun-14 17:47N 40°43' W 074°03'0 0.2
2018-Jun-14 17:30N 40°43' W 074°02'3 5.7
2018-Jun-14 16:58N 40°40' W 074°03'1 2.2
2018-Jun-14 16:29N 40°39' W 074°03'  
2018-Jun-11 18:32N 38°50' W 076°25'0 7.0
2018-Jun-11 18:29N 38°51' W 076°25'3 6.3
2018-Jun-11 18:00N 38°54' W 076°25'3 6.6
2018-Jun-11 17:30N 38°57' W 076°27'  
Track history (hours):
 
Tides and Currents Weather Stations Pressure Air Temp Water Temp Dewpoint Dewpoint Depression Visibility Wind Speed Wind Dir Waves Ship Positions

Brave

Last reported at 2018-Jun-20 12:38 UTC. Time now 2018-Jun-24 01:44 UTC.
Position N 39°25' W 076°03'.

Length 14 m.

Type: Sailing vessel. MMSI: 369970069.

Date/timePositionNaut miles runAvg speedWind from/ knotsBaromVisibWave heightAir tempDewpointWater temp
2018-Jun-20 12:38N 39°25' W 076°03'1 7.3
2018-Jun-20 12:30N 39°25' W 076°02'4 7.6
2018-Jun-20 12:00N 39°28' W 075°58'4 7.8
2018-Jun-20 11:30N 39°30' W 075°54'4 8.0
2018-Jun-20 11:00N 39°32' W 075°50'4 8.6
2018-Jun-20 10:30N 39°32' W 075°44'4 8.0
2018-Jun-20 10:00N 39°33' W 075°39'3 7.0
2018-Jun-20 09:30N 39°34' W 075°34'1 2.6
2018-Jun-20 09:00N 39°33' W 075°33'3 6.6
2018-Jun-20 08:30N 39°30' W 075°33'4 7.2
2018-Jun-20 08:00N 39°27' W 075°33'4 8.5
2018-Jun-20 07:30N 39°23' W 075°29'4 8.2
2018-Jun-20 07:00N 39°20' W 075°25'4 7.7
2018-Jun-20 06:30N 39°18' W 075°22'4 7.2
2018-Jun-20 06:00N 39°15' W 075°19'59 3.7
2018-Jun-19 13:58N 39°36' W 074°08'3 6.3
2018-Jun-19 13:28N 39°38' W 074°06'3 6.2
2018-Jun-19 13:00N 39°41' W 074°04'57 4.6
2018-Jun-19 00:36N 40°38' W 074°03'1 7.2
2018-Jun-19 00:27N 40°39' W 074°03'3 7.4
2018-Jun-19 00:00N 40°42' W 074°01'  
2018-Jun-14 21:24N 40°45' W 073°57'3 6.3
2018-Jun-14 20:56N 40°43' W 073°58'2 5.5
2018-Jun-14 20:30N 40°42' W 074°01'1 0.4
2018-Jun-14 17:47N 40°43' W 074°03'0 0.2
2018-Jun-14 17:30N 40°43' W 074°02'3 5.7
2018-Jun-14 16:58N 40°40' W 074°03'1 2.2
2018-Jun-14 16:29N 40°39' W 074°03'  
2018-Jun-11 18:32N 38°50' W 076°25'0 7.0
2018-Jun-11 18:29N 38°51' W 076°25'3 6.3
2018-Jun-11 18:00N 38°54' W 076°25'3 6.6
2018-Jun-11 17:30N 38°57' W 076°27'  

Dump ship's entire track history